createdAt,value
2023-07-29T00:00:05.539Z,1.38
2023-07-29T00:02:55.487Z,1.60
2023-07-29T00:05:39.221Z,1.20
2023-07-29T00:08:22.412Z,1.13
2023-07-29T00:11:06.638Z,0.98
2023-07-29T00:13:51.184Z,0.95
2023-07-29T00:16:34.226Z,0.98
2023-07-29T00:19:17.933Z,0.80
2023-07-29T00:22:00.973Z,1.05
2023-07-29T00:24:43.836Z,0.95
2023-07-29T00:27:28.596Z,1.00
2023-07-29T00:30:12.935Z,1.00
2023-07-29T00:32:55.795Z,1.00
2023-07-29T00:35:38.671Z,0.90
2023-07-29T00:38:21.713Z,1.00
2023-07-29T00:41:05.199Z,0.90
2023-07-29T00:43:49.394Z,0.90
2023-07-29T00:46:34.200Z,0.70
2023-07-29T00:49:17.366Z,0.90
2023-07-29T00:52:00.485Z,0.90
2023-07-29T00:54:44.238Z,0.90
2023-07-29T00:57:27.449Z,1.02
2023-07-29T01:00:12.830Z,0.85
2023-07-29T01:02:56.254Z,0.77
2023-07-29T01:05:49.538Z,0.82
2023-07-29T01:08:40.591Z,0.68
2023-07-29T01:11:35.678Z,0.70
2023-07-29T01:17:14.590Z,0.70
2023-07-29T01:20:03.912Z,0.90
2023-07-29T01:22:46.840Z,0.70
2023-07-29T01:25:31.132Z,0.98
2023-07-29T01:28:14.054Z,0.90
2023-07-29T01:31:04.233Z,1.00
2023-07-29T01:33:58.471Z,0.80
2023-07-29T01:36:47.469Z,0.90
2023-07-29T01:39:34.880Z,0.80
2023-07-29T01:42:19.562Z,0.50
2023-07-29T01:45:02.638Z,0.82
2023-07-29T01:47:45.619Z,0.70
2023-07-29T01:50:28.553Z,0.73
2023-07-29T01:53:11.458Z,0.65
2023-07-29T01:55:54.437Z,0.70
2023-07-29T01:58:38.752Z,0.80
2023-07-29T02:01:21.668Z,0.75
2023-07-29T02:04:04.749Z,0.82
2023-07-29T02:06:47.765Z,0.80
2023-07-29T02:09:32.142Z,1.05
2023-07-29T02:12:15.059Z,0.90
2023-07-29T02:14:59.240Z,0.80
2023-07-29T02:17:43.857Z,0.98
2023-07-29T02:20:26.934Z,1.17
2023-07-29T02:23:09.898Z,1.05
2023-07-29T02:25:52.812Z,1.17
2023-07-29T02:28:35.816Z,1.00
2023-07-29T02:31:23.528Z,1.25
2023-07-29T02:34:06.752Z,1.17
2023-07-29T02:36:49.772Z,1.13
2023-07-29T02:39:33.035Z,1.23
2023-07-29T02:42:16.426Z,1.30
2023-07-29T02:44:59.982Z,1.23
2023-07-29T02:47:44.250Z,1.08
2023-07-29T02:50:27.190Z,1.10
2023-07-29T02:53:10.057Z,1.38
2023-07-29T02:55:53.009Z,1.40
2023-07-29T02:58:37.465Z,1.35
2023-07-29T03:01:20.818Z,1.45
2023-07-29T03:04:05.374Z,1.30
2023-07-29T03:09:32.575Z,1.23
2023-07-29T03:12:15.427Z,1.50
2023-07-29T03:14:58.307Z,1.70
2023-07-29T03:17:41.312Z,1.60
2023-07-29T03:20:25.604Z,1.58
2023-07-29T03:23:08.641Z,1.83
2023-07-29T03:25:52.399Z,1.65
2023-07-29T03:28:35.729Z,1.50
2023-07-29T03:31:18.983Z,1.60
2023-07-29T03:34:02.508Z,1.52
2023-07-29T03:36:48.784Z,1.67
2023-07-29T03:39:31.692Z,1.35
2023-07-29T03:42:14.579Z,1.92
2023-07-29T03:44:57.560Z,1.67
2023-07-29T03:47:41.160Z,2.88
2023-07-29T03:50:24.572Z,2.53
2023-07-29T03:53:11.086Z,2.35
2023-07-29T03:55:54.025Z,2.22
2023-07-29T03:58:36.965Z,2.63
2023-07-29T04:01:19.968Z,2.22
2023-07-29T04:04:03.298Z,3.35
2023-07-29T04:06:46.336Z,2.80
2023-07-29T04:09:30.782Z,2.45
2023-07-29T04:12:13.844Z,2.55
2023-07-29T04:14:56.763Z,2.60
2023-07-29T04:17:39.679Z,2.55
2023-07-29T04:20:22.731Z,2.75
2023-07-29T04:23:05.635Z,2.30
2023-07-29T04:25:51.010Z,2.83
2023-07-29T04:28:33.904Z,2.50
2023-07-29T04:31:16.868Z,2.80
2023-07-29T04:33:59.815Z,2.97
2023-07-29T04:36:42.879Z,3.50
2023-07-29T04:39:25.994Z,2.05
2023-07-29T04:42:10.322Z,1.77
2023-07-29T04:44:53.220Z,2.05
2023-07-29T04:47:36.177Z,2.30
2023-07-29T04:50:19.554Z,2.33
2023-07-29T04:53:02.379Z,2.10
2023-07-29T04:55:45.410Z,2.35
2023-07-29T04:58:30.877Z,1.77
2023-07-29T05:01:14.908Z,1.98
2023-07-29T05:03:57.831Z,2.80
2023-07-29T05:06:40.770Z,1.80
2023-07-29T05:09:23.678Z,2.47
2023-07-29T05:12:08.025Z,3.17
2023-07-29T05:14:52.277Z,3.45
2023-07-29T05:17:35.657Z,3.45
2023-07-29T05:20:18.558Z,2.30
2023-07-29T05:23:01.840Z,2.55
2023-07-29T05:25:44.789Z,2.25
2023-07-29T05:28:27.758Z,1.90
2023-07-29T05:31:12.051Z,1.90
2023-07-29T05:33:55.050Z,1.98
2023-07-29T05:36:38.643Z,2.35
2023-07-29T05:39:21.834Z,2.70
2023-07-29T05:42:05.055Z,1.70
2023-07-29T05:44:47.941Z,1.73
2023-07-29T05:47:32.230Z,2.13
2023-07-29T05:50:15.436Z,2.03
2023-07-29T05:52:58.380Z,1.48
2023-07-29T05:55:41.265Z,1.70
2023-07-29T05:58:24.200Z,1.85
2023-07-29T06:01:07.732Z,1.33
2023-07-29T06:03:52.236Z,1.17
2023-07-29T06:06:35.501Z,1.42
2023-07-29T06:09:18.802Z,1.20
2023-07-29T06:12:01.807Z,1.17
2023-07-29T06:14:44.774Z,1.13
2023-07-29T06:17:27.696Z,1.58
2023-07-29T06:20:12.745Z,1.40
2023-07-29T06:22:55.619Z,1.33
2023-07-29T06:25:38.529Z,1.42
2023-07-29T06:28:21.437Z,1.30
2023-07-29T06:31:04.402Z,1.38
2023-07-29T06:33:47.272Z,1.50
2023-07-29T06:36:31.546Z,1.50
2023-07-29T06:39:14.474Z,1.60
2023-07-29T06:41:57.343Z,1.35
2023-07-29T06:44:40.456Z,1.45
2023-07-29T06:47:23.404Z,1.45
2023-07-29T06:50:07.172Z,1.27
2023-07-29T06:52:51.545Z,1.10
2023-07-29T06:55:34.402Z,1.25
2023-07-29T06:58:17.330Z,1.05
2023-07-29T07:01:00.200Z,1.13
2023-07-29T07:03:43.232Z,1.00
2023-07-29T07:06:26.267Z,1.25
2023-07-29T07:09:10.439Z,0.98
2023-07-29T07:11:53.628Z,1.20
2023-07-29T07:14:36.468Z,1.10
2023-07-29T07:17:19.382Z,0.98
2023-07-29T07:20:02.270Z,1.10
2023-07-29T07:22:45.148Z,0.90
2023-07-29T07:25:29.355Z,0.85
2023-07-29T07:28:12.425Z,0.80
2023-07-29T07:30:56.933Z,1.00
2023-07-29T07:33:39.895Z,0.98
2023-07-29T07:36:23.006Z,0.90
2023-07-29T07:39:05.959Z,0.80
2023-07-29T07:41:50.153Z,1.10
2023-07-29T07:44:33.119Z,1.05
2023-07-29T07:47:15.955Z,0.98
2023-07-29T07:49:58.995Z,1.20
2023-07-29T07:52:41.882Z,0.90
2023-07-29T07:55:24.741Z,0.98
2023-07-29T07:58:08.978Z,0.90
2023-07-29T08:00:51.844Z,1.10
2023-07-29T08:03:34.866Z,1.20
2023-07-29T08:06:17.743Z,1.30
2023-07-29T08:09:00.918Z,1.10
2023-07-29T08:11:43.780Z,1.17
2023-07-29T08:14:28.057Z,1.10
2023-07-29T08:17:10.938Z,1.25
2023-07-29T08:19:53.930Z,2.03
2023-07-29T08:22:36.806Z,1.75
2023-07-29T08:25:19.642Z,1.67
2023-07-29T08:28:02.589Z,1.50
2023-07-29T08:30:46.855Z,1.80
2023-07-29T08:33:30.146Z,1.90
2023-07-29T08:36:13.010Z,1.60
2023-07-29T08:38:55.853Z,1.92
2023-07-29T08:41:48.037Z,1.52
2023-07-29T08:44:37.135Z,1.50
2023-07-29T08:47:21.519Z,1.60
2023-07-29T08:50:05.965Z,1.60
2023-07-29T08:52:52.280Z,1.60
2023-07-29T08:55:35.349Z,1.23
2023-07-29T08:58:18.526Z,1.90
2023-07-29T09:01:01.808Z,1.80
2023-07-29T09:03:46.113Z,1.65
2023-07-29T09:06:29.523Z,1.35
2023-07-29T09:09:12.441Z,1.60
2023-07-29T09:11:55.724Z,1.48
2023-07-29T09:14:38.627Z,1.20
2023-07-29T09:17:23.214Z,1.38
2023-07-29T09:20:11.696Z,1.33
2023-07-29T09:22:55.800Z,1.50
2023-07-29T09:25:39.606Z,1.27
2023-07-29T09:28:24.454Z,1.15
2023-07-29T09:31:07.968Z,1.27
2023-07-29T09:33:51.217Z,1.40
2023-07-29T09:36:37.043Z,1.25
2023-07-29T09:39:20.289Z,1.30
2023-07-29T09:42:04.092Z,1.25
2023-07-29T09:44:47.020Z,1.30
2023-07-29T09:47:30.951Z,1.55
2023-07-29T09:50:13.850Z,1.23
2023-07-29T09:53:00.037Z,1.42
2023-07-29T09:55:48.744Z,1.23
2023-07-29T09:58:31.919Z,1.13
2023-07-29T10:01:16.068Z,1.30
2023-07-29T10:04:01.261Z,1.70
2023-07-29T10:06:44.881Z,1.20
2023-07-29T10:09:29.650Z,1.63
2023-07-29T10:14:57.300Z,1.38
2023-07-29T10:17:41.591Z,1.27
2023-07-29T10:20:24.757Z,1.40
2023-07-29T10:23:10.825Z,1.40
2023-07-29T10:25:59.985Z,1.50
2023-07-29T10:28:48.220Z,1.30
2023-07-29T10:31:31.982Z,1.27
2023-07-29T10:34:16.411Z,1.05
2023-07-29T10:37:00.262Z,1.02
2023-07-29T10:39:53.706Z,0.93
2023-07-29T10:42:38.163Z,1.50
2023-07-29T10:45:22.697Z,1.50
2023-07-29T10:48:09.772Z,1.45
2023-07-29T10:50:52.723Z,1.10
2023-07-29T10:53:35.682Z,1.20
2023-07-29T10:56:28.353Z,1.50
2023-07-29T10:59:36.104Z,1.60
2023-07-29T11:02:20.418Z,1.17
2023-07-29T11:05:08.137Z,0.90
2023-07-29T11:07:51.484Z,1.10
2023-07-29T11:10:45.004Z,1.02
2023-07-29T11:13:29.354Z,1.20
2023-07-29T11:16:18.577Z,1.33
2023-07-29T11:19:02.807Z,1.23
2023-07-29T11:21:45.724Z,1.30
2023-07-29T11:24:28.557Z,1.50
2023-07-29T11:27:13.555Z,1.45
2023-07-29T11:29:59.296Z,1.35
2023-07-29T11:32:44.584Z,1.33
2023-07-29T11:35:27.517Z,1.20
2023-07-29T11:38:10.482Z,1.50
2023-07-29T11:40:57.567Z,1.88
2023-07-29T11:43:40.536Z,2.60
2023-07-29T11:46:24.923Z,2.42
2023-07-29T11:49:09.256Z,2.90
2023-07-29T11:51:52.414Z,4.50
2023-07-29T11:54:36.857Z,4.90
2023-07-29T11:57:20.391Z,3.10
2023-07-29T12:00:07.512Z,2.65
2023-07-29T12:02:53.415Z,1.73
2023-07-29T12:05:40.014Z,1.30
2023-07-29T12:08:26.806Z,1.10
2023-07-29T12:11:10.960Z,1.30
2023-07-29T12:13:55.651Z,1.23
2023-07-29T12:19:34.274Z,1.00
2023-07-29T12:22:21.831Z,1.27
2023-07-29T12:25:05.929Z,1.00
2023-07-29T12:27:49.152Z,1.08
2023-07-29T12:30:32.146Z,1.20
2023-07-29T12:33:31.726Z,1.27
2023-07-29T12:36:14.635Z,1.00
2023-07-29T12:39:02.673Z,1.08
2023-07-29T12:41:45.878Z,1.20
2023-07-29T12:44:34.229Z,1.40
2023-07-29T12:47:17.211Z,1.58
2023-07-29T12:50:00.174Z,1.45
2023-07-29T12:52:43.138Z,1.55
2023-07-29T12:55:27.394Z,1.40
2023-07-29T12:58:10.374Z,1.83
2023-07-29T13:00:53.831Z,2.05
2023-07-29T13:03:36.868Z,2.30
2023-07-29T13:06:19.873Z,1.80
2023-07-29T13:09:02.797Z,1.90
2023-07-29T13:11:47.124Z,1.60
2023-07-29T13:14:30.058Z,1.40
2023-07-29T13:17:12.988Z,1.40
2023-07-29T13:19:55.913Z,1.30
2023-07-29T13:22:38.856Z,1.50
2023-07-29T13:25:22.040Z,1.20
2023-07-29T13:28:06.417Z,1.20
2023-07-29T13:30:49.390Z,1.00
2023-07-29T13:33:34.985Z,0.90
2023-07-29T13:36:17.920Z,1.30
2023-07-29T13:39:00.835Z,1.10
2023-07-29T13:41:43.910Z,1.10
2023-07-29T13:44:28.272Z,1.20
2023-07-29T13:47:11.192Z,1.27
2023-07-29T13:49:54.130Z,1.10
2023-07-29T13:52:38.501Z,1.25
2023-07-29T13:55:21.526Z,1.52
2023-07-29T13:58:04.482Z,1.35
2023-07-29T14:00:48.737Z,1.10
2023-07-29T14:03:31.652Z,1.10
2023-07-29T14:06:14.613Z,1.20
2023-07-29T14:08:57.591Z,1.33
2023-07-29T14:11:40.538Z,1.40
2023-07-29T14:14:23.490Z,1.10
2023-07-29T14:17:09.443Z,1.17
2023-07-29T14:19:52.365Z,1.45
2023-07-29T14:22:35.298Z,1.20
2023-07-29T14:25:18.292Z,1.30
2023-07-29T14:28:01.259Z,1.40
2023-07-29T14:30:44.288Z,1.13
2023-07-29T14:33:28.952Z,1.15
2023-07-29T14:38:54.648Z,1.25
2023-07-29T14:41:37.570Z,1.20
2023-07-29T14:44:20.461Z,1.30
2023-07-29T14:47:03.384Z,1.27
2023-07-29T14:49:48.159Z,1.30
2023-07-29T14:52:31.097Z,1.50
2023-07-29T14:55:14.152Z,1.10
2023-07-29T14:57:57.090Z,1.40
2023-07-29T15:00:40.021Z,1.08
2023-07-29T15:03:23.138Z,1.20
2023-07-29T15:06:07.579Z,0.90
2023-07-29T15:08:50.572Z,1.20
2023-07-29T15:11:34.308Z,1.10
2023-07-29T15:14:17.570Z,1.20
2023-07-29T15:17:00.499Z,1.15
2023-07-29T15:19:43.617Z,1.17
2023-07-29T15:22:27.907Z,1.23
2023-07-29T15:25:11.774Z,1.40
2023-07-29T15:27:54.734Z,1.30
2023-07-29T15:30:39.273Z,1.40
2023-07-29T15:33:23.011Z,1.27
2023-07-29T15:36:06.429Z,1.20
2023-07-29T15:38:50.855Z,1.30
2023-07-29T15:41:34.962Z,1.33
2023-07-29T15:44:18.034Z,1.60
2023-07-29T15:47:01.199Z,1.50
2023-07-29T15:49:44.109Z,1.13
2023-07-29T15:52:28.051Z,1.70
2023-07-29T15:55:12.400Z,1.37
2023-07-29T15:57:55.333Z,1.30
2023-07-29T16:00:38.268Z,1.35
2023-07-29T16:03:21.284Z,1.40
2023-07-29T16:06:04.590Z,1.38
2023-07-29T16:08:47.508Z,1.70
2023-07-29T16:11:31.839Z,1.65
2023-07-29T16:14:15.148Z,1.35
2023-07-29T16:16:58.086Z,1.30
2023-07-29T16:19:55.672Z,1.35
2023-07-29T16:22:38.607Z,1.30
2023-07-29T16:25:21.571Z,1.20
2023-07-29T16:28:06.135Z,1.42
2023-07-29T16:30:49.116Z,1.50
2023-07-29T16:33:32.070Z,1.50
2023-07-29T16:36:15.020Z,1.40
2023-07-29T16:38:58.020Z,1.35
2023-07-29T16:42:04.376Z,1.40
2023-07-29T16:44:45.213Z,1.40
2023-07-29T16:47:28.327Z,1.40
2023-07-29T16:50:11.678Z,1.15
2023-07-29T16:52:55.069Z,1.13
2023-07-29T16:55:38.050Z,1.25
2023-07-29T16:58:21.707Z,1.40
2023-07-29T17:01:06.186Z,1.20
2023-07-29T17:03:49.286Z,1.05
2023-07-29T17:06:32.264Z,1.30
2023-07-29T17:09:15.278Z,1.20
2023-07-29T17:12:00.693Z,1.17
2023-07-29T17:14:43.675Z,0.90
2023-07-29T17:17:28.027Z,1.10
2023-07-29T17:20:11.725Z,1.42
2023-07-29T17:22:54.657Z,1.30
2023-07-29T17:25:37.608Z,1.50
2023-07-29T17:28:20.621Z,1.75
2023-07-29T17:31:04.156Z,2.60
2023-07-29T17:33:49.066Z,2.55
2023-07-29T17:36:32.099Z,1.90
2023-07-29T17:39:15.007Z,1.42
2023-07-29T17:41:57.936Z,1.83
2023-07-29T17:44:40.919Z,4.05
2023-07-29T17:47:24.034Z,3.35
2023-07-29T17:50:09.475Z,3.63
2023-07-29T17:52:52.940Z,2.70
2023-07-29T17:55:38.865Z,1.50
2023-07-29T17:58:21.898Z,4.57
2023-07-29T18:01:05.027Z,3.08
2023-07-29T18:03:48.043Z,2.10
2023-07-29T18:06:32.390Z,1.60
2023-07-29T18:09:15.654Z,2.33
2023-07-29T18:12:02.076Z,1.50
2023-07-29T18:14:45.836Z,1.35
2023-07-29T18:17:28.788Z,3.58
2023-07-29T18:20:12.634Z,2.92
2023-07-29T18:23:01.786Z,5.80
2023-07-29T18:25:44.757Z,6.25
2023-07-29T18:28:27.794Z,2.72
2023-07-29T18:31:11.750Z,1.83
2023-07-29T18:33:54.701Z,1.70
2023-07-29T18:36:37.856Z,1.10
2023-07-29T18:39:22.440Z,1.00
2023-07-29T18:42:05.830Z,0.90
2023-07-29T18:44:48.798Z,1.00
2023-07-29T18:47:31.728Z,0.98
2023-07-29T18:50:14.689Z,1.02
2023-07-29T18:52:59.237Z,0.73
2023-07-29T18:55:45.744Z,0.98
2023-07-29T18:58:28.689Z,1.10
2023-07-29T19:01:12.002Z,0.90
2023-07-29T19:03:55.303Z,1.10
2023-07-29T19:06:38.501Z,0.88
2023-07-29T19:09:21.670Z,1.55
2023-07-29T19:12:06.481Z,1.23
2023-07-29T19:14:49.407Z,1.17
2023-07-29T19:17:32.600Z,1.38
2023-07-29T19:20:15.550Z,1.00
2023-07-29T19:22:58.469Z,1.05
2023-07-29T19:25:46.502Z,1.00
2023-07-29T19:28:30.898Z,1.00
2023-07-29T19:31:14.948Z,1.00
2023-07-29T19:33:58.004Z,1.13
2023-07-29T19:36:40.937Z,1.10
2023-07-29T19:39:24.062Z,1.00
2023-07-29T19:42:07.642Z,1.27
2023-07-29T19:44:52.188Z,1.40
2023-07-29T19:47:35.187Z,1.30
2023-07-29T19:50:18.361Z,1.30
2023-07-29T19:53:01.304Z,1.25
2023-07-29T19:55:51.236Z,1.08
2023-07-29T19:58:34.261Z,1.27
2023-07-29T20:01:19.217Z,1.20
2023-07-29T20:04:02.241Z,1.50
2023-07-29T20:06:45.237Z,1.20
2023-07-29T20:09:28.427Z,1.15
2023-07-29T20:12:11.473Z,1.20
2023-07-29T20:14:56.005Z,1.27
2023-07-29T20:20:27.414Z,1.15
2023-07-29T20:23:10.378Z,1.17
2023-07-29T20:25:53.347Z,1.25
2023-07-29T20:28:36.620Z,1.10
2023-07-29T20:31:19.671Z,1.20
2023-07-29T20:34:04.003Z,1.05
2023-07-29T20:36:46.931Z,1.40
2023-07-29T20:39:30.296Z,1.27
2023-07-29T20:42:13.244Z,1.27
2023-07-29T20:44:56.189Z,1.02
2023-07-29T20:47:39.213Z,1.02
2023-07-29T20:50:24.312Z,1.10
2023-07-29T20:53:07.299Z,0.98
2023-07-29T20:55:50.218Z,1.00
2023-07-29T20:58:33.311Z,1.15
2023-07-29T21:01:16.303Z,1.10
2023-07-29T21:04:00.079Z,1.20
2023-07-29T21:06:44.371Z,1.20
2023-07-29T21:09:27.270Z,1.05
2023-07-29T21:12:10.627Z,1.08
2023-07-29T21:14:53.546Z,1.38
2023-07-29T21:17:36.488Z,1.25
2023-07-29T21:20:19.493Z,1.30
2023-07-29T21:23:04.040Z,1.20
2023-07-29T21:25:48.268Z,1.10
2023-07-29T21:28:31.264Z,0.95
2023-07-29T21:31:16.958Z,1.42
2023-07-29T21:34:01.079Z,1.33
2023-07-29T21:36:44.042Z,1.35
2023-07-29T21:39:28.338Z,1.30
2023-07-29T21:42:11.257Z,1.40
2023-07-29T21:44:54.216Z,1.02
2023-07-29T21:47:37.266Z,1.60
2023-07-29T21:50:21.220Z,1.60
2023-07-29T21:53:04.135Z,1.20
2023-07-29T21:55:48.445Z,0.88
2023-07-29T21:58:31.400Z,1.10
2023-07-29T22:01:14.377Z,1.10
2023-07-29T22:03:57.365Z,1.67
2023-07-29T22:06:40.283Z,1.45
2023-07-29T22:09:24.835Z,1.20
2023-07-29T22:12:10.122Z,1.60
2023-07-29T22:14:53.131Z,1.65
2023-07-29T22:17:36.117Z,1.38
2023-07-29T22:20:19.127Z,1.60
2023-07-29T22:23:03.013Z,1.60
2023-07-29T22:25:45.996Z,1.60
2023-07-29T22:28:31.285Z,1.23
2023-07-29T22:31:14.331Z,1.45
2023-07-29T22:33:57.279Z,1.58
2023-07-29T22:36:40.321Z,1.65
2023-07-29T22:39:23.339Z,1.35
2023-07-29T22:42:06.729Z,1.55
2023-07-29T22:44:51.033Z,1.67
2023-07-29T22:47:34.307Z,1.40
2023-07-29T22:50:17.345Z,1.33
2023-07-29T22:53:00.262Z,1.42
2023-07-29T22:55:44.106Z,1.40
2023-07-29T22:58:27.064Z,1.40
2023-07-29T23:01:11.401Z,1.17
2023-07-29T23:03:54.389Z,1.35
2023-07-29T23:06:37.733Z,1.40
2023-07-29T23:09:20.886Z,1.63
2023-07-29T23:12:03.858Z,1.55
2023-07-29T23:14:46.795Z,1.33
2023-07-29T23:17:31.114Z,2.17
2023-07-29T23:20:14.325Z,2.40
2023-07-29T23:22:57.374Z,1.73
2023-07-29T23:25:40.289Z,1.63
2023-07-29T23:28:23.263Z,1.70
2023-07-29T23:31:06.350Z,1.73
2023-07-29T23:33:50.655Z,1.40
2023-07-29T23:36:33.570Z,1.38
2023-07-29T23:39:16.541Z,1.60
2023-07-29T23:41:59.453Z,1.67
2023-07-29T23:44:42.409Z,1.70
2023-07-29T23:47:25.414Z,1.65
2023-07-29T23:50:10.787Z,1.60
2023-07-29T23:52:53.742Z,1.65
2023-07-29T23:55:36.764Z,1.30
2023-07-29T23:58:19.721Z,1.33
